Time;durP1;ratioP1;P1;durP2;ratioP2;P2;SDS_P1;SDS_P2;PMS_P1;PMS_P2;Temp;Humidity;BMP_temperature;BMP_pressure;BME280_temperature;BME280_humidity;BME280_pressure;Samples;Min_cycle;Max_cycle;Signal;HPM_P1;HPM_P2
2022/05/09 00:00:32;;;;;;;5.30;2.73;;;9.10;99.90;;;;;;5040311;28;20201;-88
2022/05/09 00:02:58;;;;;;;14.27;3.33;;;9.20;99.90;;;;;;5039915;28;20215;-88
2022/05/09 00:05:27;;;;;;;16.37;3.30;;;9.20;99.90;;;;;;5040298;28;20239;-87
2022/05/09 00:07:53;;;;;;;16.03;3.43;;;9.20;99.90;;;;;;5041139;28;20228;-88
2022/05/09 00:10:23;;;;;;;6.80;2.80;;;9.00;99.90;;;;;;5059537;28;20292;-88
2022/05/09 00:12:50;;;;;;;7.10;2.93;;;9.10;99.90;;;;;;5040837;28;20186;-88
2022/05/09 00:15:17;;;;;;;10.77;2.93;;;8.80;99.90;;;;;;5042073;28;20221;-88
2022/05/09 00:17:46;;;;;;;10.93;3.13;;;8.90;99.90;;;;;;5042104;28;20175;-87
2022/05/09 00:20:14;;;;;;;7.80;3.00;;;8.80;99.90;;;;;;5040569;28;20194;-88
2022/05/09 00:22:51;;;;;;;12.70;3.10;;;8.80;99.90;;;;;;5040500;28;20708;-88
2022/05/09 00:25:19;;;;;;;8.93;3.00;;;8.80;99.90;;;;;;5041303;28;20204;-88
2022/05/09 00:27:45;;;;;;;8.37;3.80;;;8.70;99.90;;;;;;5038156;28;20228;-86
2022/05/09 00:30:11;;;;;;;7.80;3.10;;;8.70;99.90;;;;;;5037796;28;20229;-87
2022/05/09 00:32:37;;;;;;;11.30;2.73;;;8.60;99.90;;;;;;5037045;28;20182;-87
2022/05/09 00:35:03;;;;;;;16.33;3.23;;;8.70;99.90;;;;;;5036890;28;20204;-86
2022/05/09 00:37:29;;;;;;;8.27;3.07;;;8.90;99.90;;;;;;5036583;28;20795;-87
2022/05/09 00:39:54;;;;;;;10.83;3.70;;;8.60;99.90;;;;;;5037025;28;20233;-86
2022/05/09 00:42:20;;;;;;;11.47;3.60;;;8.80;99.90;;;;;;5035760;28;20276;-87
2022/05/09 00:44:47;;;;;;;10.53;3.47;;;8.80;99.90;;;;;;5036571;28;20184;-86
2022/05/09 00:47:13;;;;;;;12.90;3.40;;;8.60;99.90;;;;;;5036368;28;20182;-86
2022/05/09 00:49:54;;;;;;;11.97;3.40;;;8.70;99.90;;;;;;5036581;28;20197;-86
2022/05/09 00:52:25;;;;;;;5.47;3.10;;;8.80;99.90;;;;;;5036081;28;20222;-86
2022/05/09 00:55:02;;;;;;;9.30;3.10;;;8.70;99.90;;;;;;5036415;28;20160;-86
2022/05/09 00:57:41;;;;;;;11.00;3.50;;;8.70;99.90;;;;;;5036235;28;20168;-87
2022/05/09 01:00:16;;;;;;;13.10;3.63;;;8.50;99.90;;;;;;5038310;28;20564;-88
2022/05/09 01:02:48;;;;;;;15.10;3.33;;;8.60;99.90;;;;;;5037839;28;20163;-88
2022/05/09 01:05:15;;;;;;;9.47;3.27;;;8.60;99.90;;;;;;5037691;28;20189;-87
2022/05/09 01:07:41;;;;;;;11.23;3.23;;;8.50;99.90;;;;;;5037786;28;20557;-88
2022/05/09 01:10:12;;;;;;;12.77;3.50;;;8.60;99.90;;;;;;5037563;28;20227;-88
2022/05/09 01:12:39;;;;;;;10.20;3.87;;;8.50;99.90;;;;;;5038512;28;20212;-88
2022/05/09 01:15:09;;;;;;;8.43;3.57;;;8.40;99.90;;;;;;5037590;28;20172;-87
2022/05/09 01:17:39;;;;;;;11.83;3.33;;;8.60;99.90;;;;;;5036367;28;20296;-86
2022/05/09 01:20:07;;;;;;;17.73;4.00;;;8.40;99.90;;;;;;5036496;28;20195;-87
2022/05/09 01:22:36;;;;;;;10.83;3.13;;;8.20;99.90;;;;;;5035586;28;20176;-86
2022/05/09 01:25:06;;;;;;;13.13;3.50;;;8.20;99.90;;;;;;5035913;28;20223;-86
2022/05/09 01:27:34;;;;;;;10.07;4.20;;;8.40;99.90;;;;;;5035618;28;20174;-87
2022/05/09 01:30:19;;;;;;;11.23;3.50;;;8.40;99.90;;;;;;5053441;28;20210;-87
2022/05/09 01:33:16;;;;;;;13.57;3.57;;;8.20;99.90;;;;;;5035385;28;20691;-86
2022/05/09 01:35:57;;;;;;;11.60;4.30;;;8.30;99.90;;;;;;5018705;28;20672;-87
2022/05/09 01:38:25;;;;;;;12.60;3.77;;;8.20;99.90;;;;;;5035739;28;20157;-86
2022/05/09 01:40:51;;;;;;;14.33;4.10;;;8.10;99.90;;;;;;5035280;28;20228;-87
2022/05/09 01:43:33;;;;;;;10.20;4.00;;;8.00;99.90;;;;;;5034962;28;20711;-86
2022/05/09 01:46:00;;;;;;;12.40;3.87;;;8.00;99.90;;;;;;5035163;28;20204;-86
2022/05/09 01:51:11;;;;;;;14.73;3.97;;;7.90;99.90;;;;;;5052919;28;20200;-86
2022/05/09 01:53:38;;;;;;;11.83;3.70;;;7.90;99.90;;;;;;5018991;28;20200;-86
2022/05/09 01:56:03;;;;;;;11.10;3.90;;;7.90;99.90;;;;;;5035366;28;20233;-86
2022/05/09 01:58:29;;;;;;;17.60;3.80;;;7.90;99.90;;;;;;5035283;28;20169;-87
2022/05/09 02:00:54;;;;;;;10.83;4.27;;;7.80;99.90;;;;;;5034712;28;20212;-86
2022/05/09 02:03:20;;;;;;;12.53;3.87;;;7.70;99.90;;;;;;5034437;28;20185;-86
2022/05/09 02:05:46;;;;;;;15.37;3.90;;;7.80;99.90;;;;;;5034583;28;20192;-86
2022/05/09 02:08:12;;;;;;;17.80;4.20;;;7.80;99.90;;;;;;5034090;28;20185;-87
2022/05/09 02:10:37;;;;;;;16.13;4.10;;;7.80;99.90;;;;;;5034819;28;20214;-86
2022/05/09 02:13:03;;;;;;;11.90;3.57;;;7.80;99.90;;;;;;5034182;28;20169;-86
2022/05/09 02:15:31;;;;;;;11.80;3.67;;;7.70;99.90;;;;;;5051862;28;20189;-87
2022/05/09 02:17:58;;;;;;;8.03;4.00;;;7.60;99.90;;;;;;5034429;28;20557;-86
2022/05/09 02:20:24;;;;;;;11.87;3.90;;;7.70;99.90;;;;;;5034771;28;20203;-87
2022/05/09 02:22:50;;;;;;;14.23;4.63;;;7.80;99.90;;;;;;5052284;28;20170;-87
2022/05/09 02:25:29;;;;;;;14.97;4.07;;;7.80;99.90;;;;;;5034580;28;20640;-87
2022/05/09 02:28:07;;;;;;;11.60;4.60;;;7.70;99.90;;;;;;5035196;28;20184;-86
2022/05/09 02:30:33;;;;;;;8.03;3.50;;;7.60;99.90;;;;;;5034545;28;20231;-86
2022/05/09 02:32:59;;;;;;;11.50;3.90;;;7.40;99.90;;;;;;5034288;28;20174;-86
2022/05/09 02:35:25;;;;;;;10.53;4.30;;;7.40;99.90;;;;;;5034390;28;20182;-87
2022/05/09 02:37:54;;;;;;;8.37;3.93;;;7.50;99.90;;;;;;5035427;28;20622;-86
2022/05/09 02:40:20;;;;;;;18.30;4.10;;;7.40;99.90;;;;;;5034118;28;20194;-86
2022/05/09 02:42:46;;;;;;;12.60;4.10;;;7.40;99.90;;;;;;5034399;28;20190;-86
2022/05/09 02:45:12;;;;;;;10.57;4.23;;;7.40;99.90;;;;;;5034458;28;20182;-86
2022/05/09 02:47:40;;;;;;;10.77;4.37;;;7.40;99.90;;;;;;5033740;28;20277;-86
2022/05/09 02:50:08;;;;;;;12.67;4.03;;;7.50;99.90;;;;;;5035004;28;20293;-87
2022/05/09 02:52:34;;;;;;;19.07;4.30;;;7.50;99.90;;;;;;5036317;28;20169;-87
2022/05/09 02:54:59;;;;;;;12.83;4.40;;;7.60;99.90;;;;;;5035705;28;20209;-87
2022/05/09 02:57:25;;;;;;;15.70;5.00;;;7.40;99.90;;;;;;5035563;28;20226;-87
2022/05/09 02:59:51;;;;;;;12.03;3.80;;;7.40;99.90;;;;;;5035518;28;20291;-87
2022/05/09 03:02:16;;;;;;;20.00;4.80;;;7.20;99.90;;;;;;5035317;28;20625;-88
2022/05/09 03:04:42;;;;;;;14.33;3.90;;;7.30;99.90;;;;;;5035030;28;20177;-88
2022/05/09 03:07:14;;;;;;;16.67;4.57;;;7.30;99.90;;;;;;5035859;28;20170;-87
2022/05/09 03:09:41;;;;;;;13.30;4.40;;;7.20;99.90;;;;;;5035758;28;20224;-87
2022/05/09 03:12:08;;;;;;;16.60;7.03;;;7.30;99.90;;;;;;5035110;28;20258;-86
2022/05/09 03:14:35;;;;;;;15.87;5.10;;;7.10;99.90;;;;;;5035540;28;20201;-86
2022/05/09 03:17:01;;;;;;;17.00;4.40;;;7.10;99.90;;;;;;5035442;28;20626;-86
2022/05/09 03:19:27;;;;;;;13.57;4.20;;;7.10;99.90;;;;;;5038044;28;20308;-86
2022/05/09 03:21:53;;;;;;;22.67;4.80;;;7.10;99.90;;;;;;5039771;28;20177;-87
2022/05/09 03:24:19;;;;;;;14.77;4.23;;;7.10;99.90;;;;;;5039907;28;20172;-87
2022/05/09 03:26:46;;;;;;;12.93;4.30;;;7.10;99.90;;;;;;5039114;28;20180;-86
2022/05/09 03:29:13;;;;;;;12.90;4.30;;;7.10;99.90;;;;;;5039313;28;20226;-87
2022/05/09 03:31:39;;;;;;;13.93;4.50;;;7.20;99.90;;;;;;5038556;28;20253;-86
2022/05/09 03:34:05;;;;;;;10.80;4.23;;;7.20;99.90;;;;;;5039116;28;20587;-87
2022/05/09 03:36:31;;;;;;;11.07;4.50;;;7.20;99.90;;;;;;5039197;28;20246;-86
2022/05/09 03:38:57;;;;;;;13.90;4.63;;;7.20;99.90;;;;;;5038997;28;20174;-87
2022/05/09 03:41:23;;;;;;;23.77;4.73;;;7.10;99.90;;;;;;5037851;28;20556;-86
2022/05/09 03:43:49;;;;;;;17.47;4.50;;;7.20;99.90;;;;;;5037921;28;20177;-87
2022/05/09 03:46:15;;;;;;;15.80;4.63;;;7.00;99.90;;;;;;5037787;28;20262;-88
2022/05/09 03:48:41;;;;;;;21.83;4.73;;;6.90;99.90;;;;;;5037707;28;20179;-86
2022/05/09 03:51:07;;;;;;;14.17;4.57;;;7.00;99.90;;;;;;5037433;28;20202;-86
2022/05/09 03:53:33;;;;;;;13.93;5.20;;;7.00;99.90;;;;;;5038728;28;20637;-86
2022/05/09 03:56:00;;;;;;;15.27;4.73;;;6.90;99.90;;;;;;5038618;28;20314;-86
2022/05/09 03:58:26;;;;;;;15.27;5.17;;;6.90;99.90;;;;;;5038295;28;20171;-87
2022/05/09 04:00:52;;;;;;;12.83;4.77;;;6.90;99.90;;;;;;5037959;28;20662;-86
2022/05/09 04:03:19;;;;;;;11.20;4.83;;;6.90;99.90;;;;;;5037720;28;20187;-87
2022/05/09 04:05:45;;;;;;;14.23;4.77;;;6.90;99.90;;;;;;5037631;28;20211;-87
2022/05/09 04:08:16;;;;;;;18.03;4.57;;;7.10;99.90;;;;;;5039302;28;20783;-87
2022/05/09 04:10:43;;;;;;;10.17;4.47;;;7.10;99.90;;;;;;5038699;28;20222;-87
2022/05/09 04:13:09;;;;;;;14.27;4.93;;;7.00;99.90;;;;;;5038168;28;20173;-88
2022/05/09 04:18:21;;;;;;;18.80;4.97;;;7.00;99.90;;;;;;5056597;28;20226;-88
2022/05/09 04:20:49;;;;;;;17.57;4.73;;;6.90;99.90;;;;;;5038446;28;20203;-87
2022/05/09 04:23:15;;;;;;;14.53;4.43;;;7.10;99.90;;;;;;5038255;28;20174;-88
2022/05/09 04:25:40;;;;;;;13.73;4.70;;;7.20;99.90;;;;;;5038143;28;20626;-88
2022/05/09 04:28:07;;;;;;;14.70;4.90;;;7.00;99.90;;;;;;5038100;28;20265;-88
2022/05/09 04:30:35;;;;;;;12.50;4.57;;;7.10;99.90;;;;;;5037524;28;20220;-86
2022/05/09 04:33:02;;;;;;;20.53;5.40;;;7.00;99.90;;;;;;5038020;28;20170;-86
2022/05/09 04:35:29;;;;;;;13.87;4.47;;;7.10;99.90;;;;;;5039339;28;20226;-86
2022/05/09 04:37:56;;;;;;;13.73;5.17;;;7.10;99.90;;;;;;5039517;28;20201;-85
2022/05/09 04:40:26;;;;;;;12.50;5.10;;;7.30;99.90;;;;;;5039193;28;20196;-86
2022/05/09 04:42:52;;;;;;;16.30;5.07;;;7.40;99.90;;;;;;5040649;28;20177;-87
2022/05/09 04:45:18;;;;;;;16.27;4.67;;;7.40;99.90;;;;;;5038705;28;20169;-88
2022/05/09 04:47:45;;;;;;;19.53;5.00;;;7.70;99.90;;;;;;5040912;28;20272;-87
2022/05/09 04:50:13;;;;;;;22.83;4.67;;;7.70;99.90;;;;;;5040636;28;20284;-87
2022/05/09 04:52:39;;;;;;;15.70;4.77;;;8.00;99.90;;;;;;5037005;28;20180;-86
2022/05/09 04:55:06;;;;;;;13.13;5.00;;;8.20;99.90;;;;;;5038727;28;20171;-86
2022/05/09 04:57:33;;;;;;;21.23;5.03;;;8.30;99.90;;;;;;5039397;28;20172;-86
2022/05/09 04:59:59;;;;;;;21.83;5.57;;;8.40;99.90;;;;;;5039018;28;20676;-86
2022/05/09 05:02:24;;;;;;;20.13;4.90;;;8.40;99.90;;;;;;5037326;28;20265;-86
2022/05/09 05:04:50;;;;;;;12.80;5.13;;;8.50;99.90;;;;;;5037880;28;20697;-87
2022/05/09 05:07:16;;;;;;;16.90;4.90;;;8.50;99.90;;;;;;5037292;28;20185;-86
2022/05/09 05:09:41;;;;;;;17.87;4.80;;;8.60;99.90;;;;;;5037131;28;20211;-86
2022/05/09 05:12:08;;;;;;;22.47;5.00;;;8.70;99.90;;;;;;5036499;28;20205;-86
2022/05/09 05:14:33;;;;;;;12.37;4.70;;;8.80;99.90;;;;;;5036640;28;20186;-86
2022/05/09 05:16:59;;;;;;;18.80;5.13;;;9.10;99.90;;;;;;5036667;28;20176;-86
2022/05/09 05:19:34;;;;;;;15.30;4.77;;;9.20;99.90;;;;;;5038337;28;20180;-87
2022/05/09 05:22:01;;;;;;;17.90;4.83;;;9.30;99.90;;;;;;5039471;28;20212;-86
2022/05/09 05:24:27;;;;;;;13.30;5.13;;;9.30;99.90;;;;;;5043034;28;20186;-88
2022/05/09 05:26:55;;;;;;;12.97;4.77;;;9.50;99.90;;;;;;5038720;28;20204;-87
2022/05/09 05:29:22;;;;;;;16.33;4.90;;;9.60;99.90;;;;;;5037216;28;20652;-86
2022/05/09 05:31:48;;;;;;;14.00;4.30;;;9.60;99.90;;;;;;5036387;28;20207;-87
2022/05/09 05:34:14;;;;;;;11.00;4.80;;;9.70;99.90;;;;;;5036208;28;20526;-86
2022/05/09 05:36:40;;;;;;;16.27;4.50;;;9.80;99.90;;;;;;5036035;28;20175;-86
2022/05/09 05:39:07;;;;;;;12.57;4.20;;;9.90;99.90;;;;;;5037151;28;20174;-87
2022/05/09 05:41:34;;;;;;;14.27;5.33;;;10.00;99.90;;;;;;5035247;28;20254;-87
2022/05/09 05:44:00;;;;;;;16.27;4.57;;;10.10;99.90;;;;;;5037140;28;20182;-87
2022/05/09 05:46:26;;;;;;;19.30;4.90;;;10.20;99.90;;;;;;5036231;28;20184;-88
2022/05/09 05:48:52;;;;;;;11.20;4.33;;;10.30;99.90;;;;;;5036345;28;20274;-87
2022/05/09 05:51:18;;;;;;;13.53;4.70;;;10.60;99.90;;;;;;5037321;28;20201;-88
2022/05/09 05:53:47;;;;;;;23.33;4.90;;;10.90;99.90;;;;;;5035774;28;20177;-87
2022/05/09 05:56:13;;;;;;;13.47;4.47;;;11.00;99.90;;;;;;5036556;28;20208;-88
2022/05/09 05:58:39;;;;;;;15.20;5.03;;;11.20;99.90;;;;;;5036538;28;20216;-88
2022/05/09 06:01:05;;;;;;;15.50;3.83;;;11.10;99.90;;;;;;5036237;28;20202;-88
2022/05/09 06:03:31;;;;;;;17.50;3.90;;;11.70;99.90;;;;;;5053430;28;20184;-86
2022/05/09 06:05:56;;;;;;;9.33;3.93;;;12.00;99.90;;;;;;5035567;28;20181;-86
2022/05/09 06:08:22;;;;;;;11.87;3.70;;;12.40;99.90;;;;;;5035731;28;20315;-86
2022/05/09 06:10:48;;;;;;;7.37;3.20;;;12.60;99.90;;;;;;5036336;28;20225;-86
2022/05/09 06:13:13;;;;;;;14.07;4.07;;;13.00;99.90;;;;;;5035442;28;20177;-87
2022/05/09 06:15:41;;;;;;;14.70;3.80;;;13.10;99.90;;;;;;5035095;28;20173;-87
2022/05/09 06:18:09;;;;;;;15.17;4.00;;;13.50;99.90;;;;;;5037873;28;20279;-85
2022/05/09 06:20:37;;;;;;;11.37;3.70;;;13.00;99.90;;;;;;5035171;28;20288;-85
2022/05/09 06:23:04;;;;;;;9.70;3.60;;;13.30;99.90;;;;;;5035546;28;20173;-86
2022/05/09 06:25:34;;;;;;;15.55;3.65;;;13.90;99.90;;;;;;5036783;28;20201;-86
2022/05/09 06:28:00;;;;;;;20.20;4.13;;;13.50;99.90;;;;;;5035411;28;20224;-85
2022/05/09 06:30:26;;;;;;;5.65;3.47;;;14.30;99.70;;;;;;5034976;28;20610;-85
2022/05/09 06:32:52;;;;;;;14.43;3.78;;;14.20;99.50;;;;;;5035030;28;20173;-85
2022/05/09 06:35:23;;;;;;;12.77;4.00;;;14.70;99.40;;;;;;5035024;28;20208;-85
2022/05/09 06:37:50;;;;;;;15.75;3.47;;;15.20;97.40;;;;;;5035840;28;20211;-85
2022/05/09 06:40:16;;;;;;;12.75;4.00;;;14.40;97.30;;;;;;5034761;28;20190;-83
2022/05/09 06:42:42;;;;;;;14.38;3.28;;;14.60;97.00;;;;;;5035540;28;20177;-85
2022/05/09 06:45:09;;;;;;;10.88;3.65;;;15.40;96.50;;;;;;5035092;28;20176;-84
2022/05/09 06:47:35;;;;;;;10.52;3.70;;;15.30;97.10;;;;;;5035885;28;20248;-84
2022/05/09 06:50:02;;;;;;;17.33;4.28;;;15.20;95.60;;;;;;5035344;28;20197;-84
2022/05/09 06:52:28;;;;;;;18.80;4.10;;;15.40;95.20;;;;;;5034790;28;20203;-83
2022/05/09 06:54:53;;;;;;;10.23;3.47;;;15.90;96.60;;;;;;5040977;28;20255;-83
2022/05/09 06:57:19;;;;;;;14.05;4.00;;;16.50;95.20;;;;;;5040982;28;20166;-84
2022/05/09 06:59:47;;;;;;;12.90;3.83;;;15.90;94.40;;;;;;5040716;28;20193;-83
2022/05/09 07:02:13;;;;;;;15.52;3.75;;;16.50;93.70;;;;;;5040242;28;20173;-83
2022/05/09 07:04:40;;;;;;;17.45;3.78;;;16.20;93.10;;;;;;5040549;28;20263;-84
2022/05/09 07:07:06;;;;;;;9.38;3.50;;;16.50;92.70;;;;;;5040133;28;20185;-84
2022/05/09 07:09:31;;;;;;;16.48;4.07;;;17.10;92.60;;;;;;5040120;28;20507;-83
2022/05/09 07:11:57;;;;;;;12.68;3.95;;;17.10;91.50;;;;;;5040192;28;20294;-84
2022/05/09 07:14:23;;;;;;;13.13;3.70;;;17.40;91.00;;;;;;5038810;28;20176;-85
2022/05/09 07:16:48;;;;;;;13.02;3.00;;;17.80;90.70;;;;;;5040011;28;20226;-84
2022/05/09 07:19:15;;;;;;;11.65;3.75;;;17.90;91.00;;;;;;5040373;28;20317;-86
2022/05/09 07:21:41;;;;;;;12.25;3.55;;;17.80;90.40;;;;;;5040590;28;20177;-85
2022/05/09 07:24:07;;;;;;;18.05;4.07;;;18.40;88.20;;;;;;5040795;28;20177;-84
2022/05/09 07:26:33;;;;;;;12.73;3.90;;;17.80;87.60;;;;;;5039915;28;20492;-84
2022/05/09 07:28:59;;;;;;;14.43;3.78;;;17.40;86.70;;;;;;5039967;28;20180;-84
2022/05/09 07:31:25;;;;;;;13.48;3.70;;;18.30;86.40;;;;;;5039617;28;20201;-85
2022/05/09 07:33:51;;;;;;;10.77;3.88;;;18.30;86.80;;;;;;5040490;28;20200;-84
2022/05/09 07:36:17;;;;;;;10.30;3.30;;;18.80;87.40;;;;;;5040084;28;20259;-84
2022/05/09 07:38:43;;;;;;;12.80;3.78;;;19.00;86.20;;;;;;5039689;28;20532;-85
2022/05/09 07:41:09;;;;;;;9.95;3.45;;;18.60;84.90;;;;;;5040153;28;20197;-84
2022/05/09 07:43:34;;;;;;;10.30;3.72;;;18.70;86.40;;;;;;5040701;28;20180;-84
2022/05/09 07:46:00;;;;;;;13.13;3.42;;;18.70;84.40;;;;;;5040277;28;20209;-83
2022/05/09 07:48:27;;;;;;;15.93;4.03;;;18.70;85.20;;;;;;5040500;28;20181;-84
2022/05/09 07:50:55;;;;;;;15.70;3.45;;;18.70;85.00;;;;;;5040034;28;20205;-84
2022/05/09 07:53:24;;;;;;;11.07;3.55;;;19.60;82.80;;;;;;5040097;28;20172;-82
2022/05/09 07:55:50;;;;;;;6.35;2.97;;;19.20;83.60;;;;;;5040181;28;20232;-84
2022/05/09 07:58:16;;;;;;;10.57;3.47;;;20.20;82.30;;;;;;5040423;28;20231;-84
2022/05/09 08:00:43;;;;;;;10.18;3.40;;;19.90;80.30;;;;;;5040423;28;20205;-83
2022/05/09 08:03:15;;;;;;;11.98;3.83;;;20.30;82.20;;;;;;5040024;28;20227;-84
2022/05/09 08:05:41;;;;;;;8.13;3.55;;;20.10;80.70;;;;;;5036906;28;20252;-83
2022/05/09 08:08:07;;;;;;;10.05;3.90;;;19.00;80.70;;;;;;5036955;28;20640;-84
2022/05/09 08:10:32;;;;;;;8.00;3.25;;;19.70;81.90;;;;;;5036667;28;20208;-83
2022/05/09 08:12:58;;;;;;;12.10;3.80;;;19.40;80.70;;;;;;5036789;28;20165;-84
2022/05/09 08:15:25;;;;;;;16.17;3.80;;;19.40;80.80;;;;;;5036826;28;20630;-83
2022/05/09 08:17:52;;;;;;;12.02;3.45;;;19.20;81.30;;;;;;5037096;28;20178;-86
2022/05/09 08:20:18;;;;;;;10.98;4.10;;;20.00;81.40;;;;;;5036562;28;20185;-84
2022/05/09 08:22:45;;;;;;;12.23;3.75;;;20.20;78.80;;;;;;5036819;28;20177;-86
2022/05/09 08:25:16;;;;;;;13.30;3.25;;;20.60;82.70;;;;;;5037145;28;20258;-88
2022/05/09 08:27:41;;;;;;;8.27;3.10;;;20.30;80.40;;;;;;5036788;28;20631;-87
2022/05/09 08:30:08;;;;;;;14.23;3.58;;;20.50;81.80;;;;;;5036419;28;20209;-86
2022/05/09 08:32:36;;;;;;;12.52;3.38;;;20.70;82.20;;;;;;5036224;28;20239;-86
2022/05/09 08:35:03;;;;;;;12.10;4.18;;;19.50;81.40;;;;;;5036519;28;20307;-86
2022/05/09 08:37:29;;;;;;;12.48;3.17;;;20.10;81.90;;;;;;5036397;28;20169;-86
2022/05/09 08:39:54;;;;;;;8.85;3.33;;;20.90;80.90;;;;;;5036384;28;20196;-86
2022/05/09 08:42:25;;;;;;;12.27;4.28;;;20.90;78.70;;;;;;5036118;28;20216;-86
2022/05/09 08:45:16;;;;;;;7.95;3.30;;;20.30;80.10;;;;;;5036955;28;20192;-87
2022/05/09 08:48:07;;;;;;;13.18;3.78;;;21.20;78.60;;;;;;5037259;28;20227;-85
2022/05/09 08:50:56;;;;;;;9.77;3.45;;;20.70;80.70;;;;;;5036518;28;20201;-88
2022/05/09 08:53:24;;;;;;;10.48;3.97;;;21.10;78.20;;;;;;5036435;28;20235;-86
2022/05/09 08:55:51;;;;;;;10.82;3.70;;;20.80;79.30;;;;;;5036697;28;20171;-87
2022/05/09 08:58:45;;;;;;;9.43;4.00;;;21.00;80.40;;;;;;5037341;28;20268;-85
2022/05/09 09:01:27;;;;;;;7.53;3.50;;;21.30;79.60;;;;;;5037867;28;20193;-86
2022/05/09 09:04:05;;;;;;;8.55;3.75;;;22.00;76.50;;;;;;5038530;28;20181;-86
2022/05/09 09:06:40;;;;;;;14.23;3.75;;;22.20;77.80;;;;;;5037589;28;20177;-86
2022/05/09 09:09:18;;;;;;;8.85;3.25;;;21.10;77.30;;;;;;5036745;28;20672;-88
2022/05/09 09:11:49;;;;;;;9.15;3.33;;;21.80;77.80;;;;;;5037895;28;20192;-87
2022/05/09 09:14:56;;;;;;;12.68;3.30;;;21.60;78.20;;;;;;5038484;28;20173;-85
2022/05/09 09:17:54;;;;;;;6.03;3.00;;;21.50;79.40;;;;;;5037792;28;20650;-86
2022/05/09 09:20:32;;;;;;;9.20;3.55;;;21.90;79.90;;;;;;5037516;28;20691;-86
2022/05/09 09:23:36;;;;;;;11.23;3.60;;;22.50;77.90;;;;;;5035653;28;20170;-86
2022/05/09 09:26:21;;;;;;;7.53;3.08;;;22.50;76.40;;;;;;4956115;28;20246;-86
2022/05/09 09:28:52;;;;;;;10.32;3.60;;;21.70;77.70;;;;;;4956995;28;20555;-86
2022/05/09 09:31:30;;;;;;;9.13;3.53;;;22.50;78.50;;;;;;5006316;28;20221;-87
2022/05/09 09:34:08;;;;;;;12.73;3.42;;;22.80;77.40;;;;;;5035696;28;20207;-85
2022/05/09 09:36:42;;;;;;;10.27;3.33;;;22.80;77.20;;;;;;5035544;28;20211;-85
2022/05/09 09:39:19;;;;;;;6.63;3.47;;;22.50;78.30;;;;;;5035594;28;20201;-86
2022/05/09 09:41:45;;;;;;;8.95;3.65;;;22.40;76.70;;;;;;5035222;28;20180;-86
2022/05/09 09:44:21;;;;;;;9.88;3.53;;;23.10;75.80;;;;;;5035287;28;20189;-85
2022/05/09 09:47:12;;;;;;;8.38;3.70;;;23.00;75.30;;;;;;5035484;28;20177;-86
2022/05/09 09:49:40;;;;;;;8.60;3.55;;;22.80;75.10;;;;;;5035375;28;20287;-85
2022/05/09 09:52:36;;;;;;;12.38;4.00;;;23.20;77.30;;;;;;5034747;28;20215;-84
2022/05/09 09:55:07;;;;;;;9.15;3.47;;;23.40;77.90;;;;;;5034653;28;20173;-85
2022/05/09 09:57:36;;;;;;;10.82;3.90;;;23.30;74.40;;;;;;5035138;28;20162;-85
2022/05/09 10:00:19;;;;;;;7.97;3.70;;;23.90;73.90;;;;;;5034767;28;20224;-84
2022/05/09 10:02:46;;;;;;;7.57;3.40;;;24.20;75.20;;;;;;5034703;28;20169;-85
2022/05/09 10:05:15;;;;;;;9.43;3.80;;;23.40;76.30;;;;;;5034708;28;20166;-85
2022/05/09 10:07:44;;;;;;;8.82;3.83;;;23.70;75.00;;;;;;5034617;28;20169;-84
2022/05/09 10:10:12;;;;;;;5.97;3.65;;;24.30;73.90;;;;;;5034483;28;20605;-85
2022/05/09 10:12:48;;;;;;;5.63;3.67;;;23.50;75.60;;;;;;5034508;28;20197;-84
2022/05/09 10:15:20;;;;;;;16.83;3.63;;;23.30;74.40;;;;;;5034489;28;20173;-86
2022/05/09 10:17:46;;;;;;;8.95;3.47;;;23.20;74.30;;;;;;5034540;28;20430;-84
2022/05/09 10:20:32;;;;;;;6.38;3.05;;;23.90;73.60;;;;;;5034176;28;20200;-86
2022/05/09 10:26:06;;;;;;;12.18;3.65;;;25.10;73.00;;;;;;5052344;28;20719;-84
2022/05/09 10:28:37;;;;;;;9.10;3.38;;;24.70;73.50;;;;;;5052477;28;20158;-85
2022/05/09 10:31:33;;;;;;;8.45;3.53;;;24.80;73.70;;;;;;5034233;28;20209;-85
2022/05/09 10:34:17;;;;;;;8.25;3.10;;;23.60;73.80;;;;;;5034022;28;20173;-85
2022/05/09 10:36:50;;;;;;;4.85;2.80;;;24.30;73.10;;;;;;5034266;28;20223;-85
2022/05/09 10:39:31;;;;;;;8.02;3.45;;;24.60;74.10;;;;;;5034590;28;20211;-86
2022/05/09 10:42:02;;;;;;;8.45;3.30;;;24.30;73.00;;;;;;5034504;28;20272;-84
2022/05/09 10:44:43;;;;;;;10.43;3.28;;;25.10;70.00;;;;;;5034540;28;20199;-84
2022/05/09 10:47:30;;;;;;;7.03;3.00;;;26.20;69.90;;;;;;5035596;28;20203;-86
2022/05/09 10:50:18;;;;;;;5.47;2.88;;;26.70;69.70;;;;;;5034788;28;20335;-84
2022/05/09 10:52:59;;;;;;;7.32;3.25;;;27.00;68.50;;;;;;5034914;28;20253;-84
2022/05/09 10:55:33;;;;;;;7.40;3.15;;;25.60;67.30;;;;;;5036004;28;20174;-87
2022/05/09 10:58:12;;;;;;;8.23;3.40;;;25.50;70.60;;;;;;5034521;28;20165;-88
2022/05/09 11:00:49;;;;;;;5.57;2.90;;;25.90;71.60;;;;;;5034283;28;20404;-86
2022/05/09 11:03:35;;;;;;;8.35;3.28;;;25.90;68.40;;;;;;5035176;28;20184;-84
2022/05/09 11:06:13;;;;;;;7.63;3.20;;;26.20;69.10;;;;;;5034276;28;20174;-85
2022/05/09 11:08:57;;;;;;;5.60;3.10;;;25.90;69.10;;;;;;5034325;28;20209;-84
2022/05/09 11:11:34;;;;;;;7.47;2.90;;;25.40;69.40;;;;;;5034537;28;20197;-85
2022/05/09 11:14:24;;;;;;;6.85;3.20;;;25.30;69.40;;;;;;5034649;28;20169;-85
2022/05/09 11:16:56;;;;;;;4.80;3.00;;;25.60;70.80;;;;;;5034724;28;20177;-84
2022/05/09 11:19:29;;;;;;;6.55;3.00;;;24.70;70.50;;;;;;5034901;28;20192;-85
2022/05/09 11:22:17;;;;;;;9.70;2.85;;;25.20;72.70;;;;;;5033026;28;20173;-86
2022/05/09 11:25:06;;;;;;;4.65;3.08;;;26.10;71.60;;;;;;5033677;28;20223;-85
2022/05/09 11:28:03;;;;;;;10.00;3.17;;;25.90;70.00;;;;;;5033923;28;20648;-87
2022/05/09 11:30:42;;;;;;;6.82;2.85;;;26.30;68.70;;;;;;5033594;28;20213;-85
2022/05/09 11:33:23;;;;;;;7.40;3.03;;;26.90;67.30;;;;;;5033771;28;20260;-85
2022/05/09 11:35:54;;;;;;;6.78;2.72;;;27.90;66.80;;;;;;5034026;28;20592;-85
2022/05/09 11:38:35;;;;;;;5.20;2.70;;;27.90;65.10;;;;;;5033751;28;20173;-86
2022/05/09 11:41:19;;;;;;;4.93;2.75;;;27.70;66.60;;;;;;5036761;28;20731;-86
2022/05/09 11:44:12;;;;;;;6.13;3.13;;;26.70;68.70;;;;;;5037710;28;20181;-89
2022/05/09 11:46:52;;;;;;;11.10;3.40;;;26.70;68.00;;;;;;5037369;28;20178;-86
2022/05/09 11:49:56;;;;;;;5.13;2.97;;;26.60;66.70;;;;;;5037030;28;20177;-85
2022/05/09 11:52:35;;;;;;;5.30;3.05;;;25.90;68.80;;;;;;5036081;28;20258;-85
2022/05/09 11:55:08;;;;;;;7.90;2.70;;;26.20;71.30;;;;;;5036803;28;20173;-85
2022/05/09 11:57:37;;;;;;;3.58;2.60;;;26.30;70.00;;;;;;5036898;28;20153;-85
2022/05/09 12:00:26;;;;;;;10.13;2.90;;;26.70;68.70;;;;;;5037240;28;20185;-84
2022/05/09 12:02:54;;;;;;;6.35;3.35;;;25.70;71.50;;;;;;5035738;28;20177;-87
2022/05/09 12:05:26;;;;;;;5.40;3.03;;;25.50;69.30;;;;;;5037051;28;20642;-86
2022/05/09 12:08:05;;;;;;;3.45;2.70;;;26.00;66.00;;;;;;5036605;28;20538;-87
2022/05/09 12:10:35;;;;;;;7.28;3.30;;;26.10;69.00;;;;;;5036601;28;20688;-85
2022/05/09 12:13:19;;;;;;;6.15;3.35;;;25.80;65.90;;;;;;5036653;28;20517;-86
2022/05/09 12:15:58;;;;;;;9.13;3.17;;;24.60;68.20;;;;;;5035731;28;20169;-85
2022/05/09 12:19:11;;;;;;;4.13;2.80;;;25.40;69.80;;;;;;5036270;28;20552;-84
2022/05/09 12:21:37;;;;;;;6.30;2.92;;;26.10;69.10;;;;;;5020190;28;20201;-86
2022/05/09 12:24:15;;;;;;;6.22;3.33;;;25.80;67.50;;;;;;5038639;28;20181;-88
2022/05/09 12:26:49;;;;;;;4.80;2.80;;;26.10;67.30;;;;;;5037823;28;20230;-84
2022/05/09 12:29:16;;;;;;;5.72;3.03;;;25.90;69.90;;;;;;5036393;28;20519;-85
2022/05/09 12:31:49;;;;;;;5.78;2.67;;;25.30;67.20;;;;;;5036217;28;20213;-85
2022/05/09 12:34:30;;;;;;;4.85;3.00;;;25.30;69.00;;;;;;5036662;28;20181;-88
2022/05/09 12:36:56;;;;;;;6.70;3.30;;;24.80;69.10;;;;;;5036757;28;20158;-86
2022/05/09 12:39:24;;;;;;;7.32;3.15;;;24.90;68.50;;;;;;5035964;28;20164;-87
2022/05/09 12:41:53;;;;;;;11.20;3.20;;;24.40;70.10;;;;;;5035889;28;20177;-88
2022/05/09 12:44:25;;;;;;;7.43;3.63;;;25.10;72.00;;;;;;5053462;28;20212;-85
2022/05/09 12:47:05;;;;;;;4.30;3.08;;;25.30;68.10;;;;;;5035532;28;20594;-85
2022/05/09 12:49:45;;;;;;;7.28;2.75;;;24.60;69.40;;;;;;5035830;28;20582;-85
2022/05/09 12:52:17;;;;;;;4.45;2.70;;;25.40;71.90;;;;;;5035565;28;20197;-85
2022/05/09 12:55:52;;;;;;;4.15;2.70;;;25.30;70.20;;;;;;5035244;28;20200;-86
2022/05/09 12:57:36;;;;;;;10.40;2.83;;;25.30;67.60;;;;;;5053323;28;20260;-86
2022/05/09 13:00:14;;;;;;;4.85;2.63;;;25.10;69.90;;;;;;5035786;28;20199;-86
2022/05/09 13:02:41;;;;;;;4.22;2.38;;;24.90;68.20;;;;;;5036265;28;20752;-87
2022/05/09 13:05:07;;;;;;;8.18;2.65;;;25.10;67.40;;;;;;5035510;28;20177;-86
2022/05/09 13:07:33;;;;;;;5.00;2.80;;;24.80;69.30;;;;;;5035372;28;20197;-86
2022/05/09 13:09:58;;;;;;;8.52;2.70;;;25.00;67.80;;;;;;5036131;28;20200;-87
2022/05/09 13:12:26;;;;;;;7.38;2.70;;;23.90;69.00;;;;;;5035211;28;20274;-85